Cokato, Minnesota
Current Conditions -  °F | °C
As of 8:35 PM on Wednesday 26 Nov 2014 (Local Time) from KMGG Reporting Station
Overcast Overcast  
Wind Chill:   Ceiling: 10000
Heat Index: 16°   Visibility: 10mi
Dew Point:   Wind: 17mph
Humidity: 64%   Direction: 330°NNW
Pressure: 30.37"   Gusts: 22mph
Location:  45.08°N, 94.19°W
Report Text: KMGG 270235Z AUTO 33015G19KT 10SM OVC100 M09/M15 A3037 RMK AO2 T10901146
Loading
Personal Weather Stations






























Interactive Weather Map New forecast layout! Learn more

10-Day Weather Forecast

Advertisements
Track Severe Weather on mobile